sensor_id;sensor_type;location;lat;lon;timestamp;P1;durP1;ratioP1;P2;durP2;ratioP2
56141;SDS011;42018;48.588;10.836;2022-12-20T00:01:40;41.58;;;23.48;;
56141;SDS011;42018;48.588;10.836;2022-12-20T00:04:25;42.00;;;22.92;;
56141;SDS011;42018;48.588;10.836;2022-12-20T00:07:10;43.95;;;23.60;;
56141;SDS011;42018;48.588;10.836;2022-12-20T00:09:56;42.70;;;22.70;;
56141;SDS011;42018;48.588;10.836;2022-12-20T00:12:41;39.95;;;21.88;;
56141;SDS011;42018;48.588;10.836;2022-12-20T00:15:26;41.30;;;23.80;;
56141;SDS011;42018;48.588;10.836;2022-12-20T00:18:12;38.97;;;21.08;;
56141;SDS011;42018;48.588;10.836;2022-12-20T00:21:00;41.08;;;22.10;;
56141;SDS011;42018;48.588;10.836;2022-12-20T00:23:47;40.58;;;21.20;;
56141;SDS011;42018;48.588;10.836;2022-12-20T00:26:32;38.42;;;22.80;;
56141;SDS011;42018;48.588;10.836;2022-12-20T00:29:18;41.67;;;23.33;;
56141;SDS011;42018;48.588;10.836;2022-12-20T00:32:03;44.70;;;25.75;;
56141;SDS011;42018;48.588;10.836;2022-12-20T00:34:49;41.40;;;23.10;;
56141;SDS011;42018;48.588;10.836;2022-12-20T00:37:34;40.95;;;22.77;;
56141;SDS011;42018;48.588;10.836;2022-12-20T00:40:19;47.47;;;24.27;;
56141;SDS011;42018;48.588;10.836;2022-12-20T00:43:05;44.75;;;24.65;;
56141;SDS011;42018;48.588;10.836;2022-12-20T00:45:50;45.47;;;24.77;;
56141;SDS011;42018;48.588;10.836;2022-12-20T00:48:36;40.35;;;21.67;;
56141;SDS011;42018;48.588;10.836;2022-12-20T00:51:23;39.60;;;21.33;;
56141;SDS011;42018;48.588;10.836;2022-12-20T00:54:10;36.35;;;20.50;;
56141;SDS011;42018;48.588;10.836;2022-12-20T00:56:55;38.15;;;20.80;;
56141;SDS011;42018;48.588;10.836;2022-12-20T00:59:41;42.08;;;20.23;;
56141;SDS011;42018;48.588;10.836;2022-12-20T01:02:26;41.50;;;21.70;;
56141;SDS011;42018;48.588;10.836;2022-12-20T01:05:11;35.95;;;21.13;;
56141;SDS011;42018;48.588;10.836;2022-12-20T01:07:57;36.92;;;19.88;;
56141;SDS011;42018;48.588;10.836;2022-12-20T01:10:42;39.63;;;21.02;;
56141;SDS011;42018;48.588;10.836;2022-12-20T01:13:28;37.15;;;20.95;;
56141;SDS011;42018;48.588;10.836;2022-12-20T01:16:15;38.67;;;21.33;;
56141;SDS011;42018;48.588;10.836;2022-12-20T01:19:01;35.85;;;21.75;;
56141;SDS011;42018;48.588;10.836;2022-12-20T01:21:47;37.60;;;21.42;;
56141;SDS011;42018;48.588;10.836;2022-12-20T01:24:33;38.00;;;21.67;;
56141;SDS011;42018;48.588;10.836;2022-12-20T01:27:18;40.03;;;22.38;;
56141;SDS011;42018;48.588;10.836;2022-12-20T01:30:03;39.90;;;21.08;;
56141;SDS011;42018;48.588;10.836;2022-12-20T01:32:49;38.83;;;20.63;;
56141;SDS011;42018;48.588;10.836;2022-12-20T01:35:34;37.20;;;20.45;;
56141;SDS011;42018;48.588;10.836;2022-12-20T01:38:20;37.83;;;20.88;;
56141;SDS011;42018;48.588;10.836;2022-12-20T01:41:05;35.72;;;20.77;;
56141;SDS011;42018;48.588;10.836;2022-12-20T01:43:52;40.05;;;21.98;;
56141;SDS011;42018;48.588;10.836;2022-12-20T01:46:43;35.33;;;19.80;;
56141;SDS011;42018;48.588;10.836;2022-12-20T01:49:30;36.95;;;21.05;;
56141;SDS011;42018;48.588;10.836;2022-12-20T01:52:28;43.05;;;23.15;;
56141;SDS011;42018;48.588;10.836;2022-12-20T01:55:21;38.13;;;22.23;;
56141;SDS011;42018;48.588;10.836;2022-12-20T01:58:11;39.63;;;23.05;;
56141;SDS011;42018;48.588;10.836;2022-12-20T02:00:58;38.25;;;21.60;;
56141;SDS011;42018;48.588;10.836;2022-12-20T02:03:44;36.90;;;20.52;;
56141;SDS011;42018;48.588;10.836;2022-12-20T02:06:30;39.97;;;21.35;;
56141;SDS011;42018;48.588;10.836;2022-12-20T02:09:15;38.70;;;21.58;;
56141;SDS011;42018;48.588;10.836;2022-12-20T02:12:05;41.63;;;22.67;;
56141;SDS011;42018;48.588;10.836;2022-12-20T02:15:02;35.80;;;19.63;;
56141;SDS011;42018;48.588;10.836;2022-12-20T02:21:02;39.97;;;22.38;;
56141;SDS011;42018;48.588;10.836;2022-12-20T02:35:41;37.33;;;21.13;;
56141;SDS011;42018;48.588;10.836;2022-12-20T02:38:28;33.83;;;17.83;;
56141;SDS011;42018;48.588;10.836;2022-12-20T02:41:26;34.93;;;19.47;;
56141;SDS011;42018;48.588;10.836;2022-12-20T02:47:25;35.13;;;18.50;;
56141;SDS011;42018;48.588;10.836;2022-12-20T02:50:16;40.90;;;20.50;;
56141;SDS011;42018;48.588;10.836;2022-12-20T02:53:05;36.17;;;19.30;;
56141;SDS011;42018;48.588;10.836;2022-12-20T02:55:53;36.90;;;19.88;;
56141;SDS011;42018;48.588;10.836;2022-12-20T03:01:33;38.50;;;20.25;;
56141;SDS011;42018;48.588;10.836;2022-12-20T03:04:26;38.10;;;20.95;;
56141;SDS011;42018;48.588;10.836;2022-12-20T03:07:16;43.03;;;23.17;;
56141;SDS011;42018;48.588;10.836;2022-12-20T03:10:03;38.42;;;20.25;;
56141;SDS011;42018;48.588;10.836;2022-12-20T03:12:49;36.40;;;20.50;;
56141;SDS011;42018;48.588;10.836;2022-12-20T03:15:34;38.78;;;21.33;;
56141;SDS011;42018;48.588;10.836;2022-12-20T03:18:20;36.03;;;20.23;;
56141;SDS011;42018;48.588;10.836;2022-12-20T03:21:05;32.85;;;18.50;;
56141;SDS011;42018;48.588;10.836;2022-12-20T03:23:51;38.47;;;21.10;;
56141;SDS011;42018;48.588;10.836;2022-12-20T03:26:36;39.22;;;21.90;;
56141;SDS011;42018;48.588;10.836;2022-12-20T03:29:21;39.13;;;22.33;;
56141;SDS011;42018;48.588;10.836;2022-12-20T03:32:07;37.03;;;19.63;;
56141;SDS011;42018;48.588;10.836;2022-12-20T03:34:52;33.70;;;19.02;;
56141;SDS011;42018;48.588;10.836;2022-12-20T03:37:38;39.17;;;20.60;;
56141;SDS011;42018;48.588;10.836;2022-12-20T03:40:23;38.03;;;21.00;;
56141;SDS011;42018;48.588;10.836;2022-12-20T03:43:09;34.30;;;19.23;;
56141;SDS011;42018;48.588;10.836;2022-12-20T03:45:54;38.25;;;19.75;;
56141;SDS011;42018;48.588;10.836;2022-12-20T03:48:39;40.13;;;19.73;;
56141;SDS011;42018;48.588;10.836;2022-12-20T03:51:25;38.72;;;22.25;;
56141;SDS011;42018;48.588;10.836;2022-12-20T03:54:10;34.30;;;20.40;;
56141;SDS011;42018;48.588;10.836;2022-12-20T03:56:56;36.58;;;19.65;;
56141;SDS011;42018;48.588;10.836;2022-12-20T03:59:41;34.10;;;18.58;;
56141;SDS011;42018;48.588;10.836;2022-12-20T04:02:27;34.75;;;19.73;;
56141;SDS011;42018;48.588;10.836;2022-12-20T04:05:12;36.25;;;19.52;;
56141;SDS011;42018;48.588;10.836;2022-12-20T04:07:58;32.83;;;18.60;;
56141;SDS011;42018;48.588;10.836;2022-12-20T04:10:43;36.95;;;18.73;;
56141;SDS011;42018;48.588;10.836;2022-12-20T04:13:48;32.08;;;16.88;;
56141;SDS011;42018;48.588;10.836;2022-12-20T04:16:36;32.45;;;17.42;;
56141;SDS011;42018;48.588;10.836;2022-12-20T04:19:21;32.78;;;17.95;;
56141;SDS011;42018;48.588;10.836;2022-12-20T04:22:06;34.05;;;18.45;;
56141;SDS011;42018;48.588;10.836;2022-12-20T04:24:52;36.50;;;18.85;;
56141;SDS011;42018;48.588;10.836;2022-12-20T04:27:37;36.72;;;19.58;;
56141;SDS011;42018;48.588;10.836;2022-12-20T04:30:22;35.20;;;18.60;;
56141;SDS011;42018;48.588;10.836;2022-12-20T04:33:08;36.40;;;19.83;;
56141;SDS011;42018;48.588;10.836;2022-12-20T04:35:53;36.47;;;19.10;;
56141;SDS011;42018;48.588;10.836;2022-12-20T04:38:39;36.35;;;19.67;;
56141;SDS011;42018;48.588;10.836;2022-12-20T04:41:24;33.40;;;19.80;;
56141;SDS011;42018;48.588;10.836;2022-12-20T04:44:11;37.67;;;20.30;;
56141;SDS011;42018;48.588;10.836;2022-12-20T04:46:56;34.28;;;19.58;;
56141;SDS011;42018;48.588;10.836;2022-12-20T04:49:41;36.33;;;20.48;;
56141;SDS011;42018;48.588;10.836;2022-12-20T04:52:27;36.92;;;19.52;;
56141;SDS011;42018;48.588;10.836;2022-12-20T04:55:35;33.95;;;18.45;;
56141;SDS011;42018;48.588;10.836;2022-12-20T04:58:22;32.70;;;18.58;;
56141;SDS011;42018;48.588;10.836;2022-12-20T05:01:07;33.47;;;18.17;;
56141;SDS011;42018;48.588;10.836;2022-12-20T05:03:53;34.47;;;19.10;;
56141;SDS011;42018;48.588;10.836;2022-12-20T05:06:38;32.22;;;18.02;;
56141;SDS011;42018;48.588;10.836;2022-12-20T05:09:24;30.85;;;17.63;;
56141;SDS011;42018;48.588;10.836;2022-12-20T05:12:09;35.60;;;19.48;;
56141;SDS011;42018;48.588;10.836;2022-12-20T05:14:55;34.63;;;18.90;;
56141;SDS011;42018;48.588;10.836;2022-12-20T05:17:40;38.65;;;20.75;;
56141;SDS011;42018;48.588;10.836;2022-12-20T05:20:26;40.10;;;20.98;;
56141;SDS011;42018;48.588;10.836;2022-12-20T05:23:11;34.53;;;18.92;;
56141;SDS011;42018;48.588;10.836;2022-12-20T05:26:15;36.08;;;19.25;;
56141;SDS011;42018;48.588;10.836;2022-12-20T05:29:01;34.30;;;20.33;;
56141;SDS011;42018;48.588;10.836;2022-12-20T05:31:47;37.25;;;20.27;;
56141;SDS011;42018;48.588;10.836;2022-12-20T05:34:32;38.47;;;20.83;;
56141;SDS011;42018;48.588;10.836;2022-12-20T05:37:18;39.97;;;20.63;;
56141;SDS011;42018;48.588;10.836;2022-12-20T05:40:03;34.47;;;19.33;;
56141;SDS011;42018;48.588;10.836;2022-12-20T05:42:49;34.95;;;19.85;;
56141;SDS011;42018;48.588;10.836;2022-12-20T05:45:34;35.25;;;20.10;;
56141;SDS011;42018;48.588;10.836;2022-12-20T05:48:20;40.17;;;21.90;;
56141;SDS011;42018;48.588;10.836;2022-12-20T05:51:05;36.70;;;19.60;;
56141;SDS011;42018;48.588;10.836;2022-12-20T05:53:53;37.10;;;19.33;;
56141;SDS011;42018;48.588;10.836;2022-12-20T05:56:39;39.38;;;22.60;;
56141;SDS011;42018;48.588;10.836;2022-12-20T05:59:24;37.42;;;21.25;;
56141;SDS011;42018;48.588;10.836;2022-12-20T06:02:09;35.88;;;20.95;;
56141;SDS011;42018;48.588;10.836;2022-12-20T06:04:56;41.00;;;22.75;;
56141;SDS011;42018;48.588;10.836;2022-12-20T06:07:43;39.53;;;23.08;;
56141;SDS011;42018;48.588;10.836;2022-12-20T06:10:28;35.80;;;21.63;;
56141;SDS011;42018;48.588;10.836;2022-12-20T06:13:13;37.33;;;21.38;;
56141;SDS011;42018;48.588;10.836;2022-12-20T06:15:59;38.30;;;21.10;;
56141;SDS011;42018;48.588;10.836;2022-12-20T06:18:45;42.45;;;22.33;;
56141;SDS011;42018;48.588;10.836;2022-12-20T06:21:30;38.75;;;21.70;;
56141;SDS011;42018;48.588;10.836;2022-12-20T06:24:16;41.28;;;20.92;;
56141;SDS011;42018;48.588;10.836;2022-12-20T06:27:01;34.85;;;19.63;;
56141;SDS011;42018;48.588;10.836;2022-12-20T06:29:47;37.40;;;19.77;;
56141;SDS011;42018;48.588;10.836;2022-12-20T06:32:36;39.05;;;19.95;;
56141;SDS011;42018;48.588;10.836;2022-12-20T06:35:22;36.88;;;19.85;;
56141;SDS011;42018;48.588;10.836;2022-12-20T06:38:07;32.95;;;18.88;;
56141;SDS011;42018;48.588;10.836;2022-12-20T06:40:53;33.22;;;17.92;;
56141;SDS011;42018;48.588;10.836;2022-12-20T06:43:38;36.67;;;19.40;;
56141;SDS011;42018;48.588;10.836;2022-12-20T06:46:24;35.35;;;18.98;;
56141;SDS011;42018;48.588;10.836;2022-12-20T06:49:09;36.97;;;19.95;;
56141;SDS011;42018;48.588;10.836;2022-12-20T06:51:55;36.72;;;20.42;;
56141;SDS011;42018;48.588;10.836;2022-12-20T06:54:40;36.22;;;20.95;;
56141;SDS011;42018;48.588;10.836;2022-12-20T06:57:25;39.40;;;21.15;;
56141;SDS011;42018;48.588;10.836;2022-12-20T07:00:11;40.20;;;22.67;;
56141;SDS011;42018;48.588;10.836;2022-12-20T07:02:57;42.83;;;22.15;;
56141;SDS011;42018;48.588;10.836;2022-12-20T07:05:42;40.92;;;22.77;;
56141;SDS011;42018;48.588;10.836;2022-12-20T07:08:28;41.38;;;22.10;;
56141;SDS011;42018;48.588;10.836;2022-12-20T07:11:13;41.83;;;22.75;;
56141;SDS011;42018;48.588;10.836;2022-12-20T07:13:59;39.97;;;22.73;;
56141;SDS011;42018;48.588;10.836;2022-12-20T07:16:44;38.67;;;22.10;;
56141;SDS011;42018;48.588;10.836;2022-12-20T07:19:29;39.75;;;22.48;;
56141;SDS011;42018;48.588;10.836;2022-12-20T07:22:15;44.65;;;24.55;;
56141;SDS011;42018;48.588;10.836;2022-12-20T07:25:00;42.95;;;24.58;;
56141;SDS011;42018;48.588;10.836;2022-12-20T07:27:46;41.38;;;22.88;;
56141;SDS011;42018;48.588;10.836;2022-12-20T07:30:33;42.17;;;23.42;;
56141;SDS011;42018;48.588;10.836;2022-12-20T07:33:19;42.65;;;22.08;;
56141;SDS011;42018;48.588;10.836;2022-12-20T07:36:11;39.58;;;21.98;;
56141;SDS011;42018;48.588;10.836;2022-12-20T07:38:57;45.50;;;23.52;;
56141;SDS011;42018;48.588;10.836;2022-12-20T07:41:43;42.22;;;24.10;;
56141;SDS011;42018;48.588;10.836;2022-12-20T07:44:29;45.15;;;23.92;;
56141;SDS011;42018;48.588;10.836;2022-12-20T07:47:14;43.20;;;22.70;;
56141;SDS011;42018;48.588;10.836;2022-12-20T07:50:00;43.15;;;22.95;;
56141;SDS011;42018;48.588;10.836;2022-12-20T07:52:47;48.55;;;24.70;;
56141;SDS011;42018;48.588;10.836;2022-12-20T07:55:34;43.75;;;23.95;;
56141;SDS011;42018;48.588;10.836;2022-12-20T07:58:26;44.63;;;23.30;;
56141;SDS011;42018;48.588;10.836;2022-12-20T08:01:12;48.88;;;26.02;;
56141;SDS011;42018;48.588;10.836;2022-12-20T08:03:59;50.08;;;26.33;;
56141;SDS011;42018;48.588;10.836;2022-12-20T08:06:49;51.40;;;24.70;;
56141;SDS011;42018;48.588;10.836;2022-12-20T08:09:39;46.03;;;25.55;;
56141;SDS011;42018;48.588;10.836;2022-12-20T08:12:27;48.17;;;25.73;;
56141;SDS011;42018;48.588;10.836;2022-12-20T08:15:14;43.50;;;24.08;;
56141;SDS011;42018;48.588;10.836;2022-12-20T08:18:00;38.20;;;21.23;;
56141;SDS011;42018;48.588;10.836;2022-12-20T08:20:45;37.78;;;20.48;;
56141;SDS011;42018;48.588;10.836;2022-12-20T08:23:31;37.33;;;20.42;;
56141;SDS011;42018;48.588;10.836;2022-12-20T08:26:17;35.30;;;18.60;;
56141;SDS011;42018;48.588;10.836;2022-12-20T08:29:02;33.65;;;19.27;;
56141;SDS011;42018;48.588;10.836;2022-12-20T08:31:47;36.60;;;21.80;;
56141;SDS011;42018;48.588;10.836;2022-12-20T08:34:33;32.58;;;19.13;;
56141;SDS011;42018;48.588;10.836;2022-12-20T08:37:18;33.45;;;18.65;;
56141;SDS011;42018;48.588;10.836;2022-12-20T08:40:04;36.42;;;20.05;;
56141;SDS011;42018;48.588;10.836;2022-12-20T08:42:51;37.28;;;19.58;;
56141;SDS011;42018;48.588;10.836;2022-12-20T08:45:37;35.85;;;19.63;;
56141;SDS011;42018;48.588;10.836;2022-12-20T08:48:22;34.53;;;20.02;;
56141;SDS011;42018;48.588;10.836;2022-12-20T08:51:08;38.63;;;23.25;;
56141;SDS011;42018;48.588;10.836;2022-12-20T08:53:55;37.75;;;22.00;;
56141;SDS011;42018;48.588;10.836;2022-12-20T08:56:40;38.53;;;22.98;;
56141;SDS011;42018;48.588;10.836;2022-12-20T08:59:26;36.38;;;21.50;;
56141;SDS011;42018;48.588;10.836;2022-12-20T09:02:11;35.72;;;21.17;;
56141;SDS011;42018;48.588;10.836;2022-12-20T09:04:56;35.75;;;20.83;;
56141;SDS011;42018;48.588;10.836;2022-12-20T09:07:42;36.15;;;21.90;;
56141;SDS011;42018;48.588;10.836;2022-12-20T09:10:27;36.47;;;20.95;;
56141;SDS011;42018;48.588;10.836;2022-12-20T09:13:12;37.00;;;22.15;;
56141;SDS011;42018;48.588;10.836;2022-12-20T09:16:01;36.47;;;20.77;;
56141;SDS011;42018;48.588;10.836;2022-12-20T09:18:49;33.35;;;19.52;;
56141;SDS011;42018;48.588;10.836;2022-12-20T09:21:35;35.30;;;20.65;;
56141;SDS011;42018;48.588;10.836;2022-12-20T09:24:20;39.22;;;22.08;;
56141;SDS011;42018;48.588;10.836;2022-12-20T09:27:06;37.67;;;23.17;;
56141;SDS011;42018;48.588;10.836;2022-12-20T09:29:51;40.85;;;23.00;;
56141;SDS011;42018;48.588;10.836;2022-12-20T09:32:36;40.80;;;23.10;;
56141;SDS011;42018;48.588;10.836;2022-12-20T09:35:22;45.03;;;27.83;;
56141;SDS011;42018;48.588;10.836;2022-12-20T09:38:07;41.17;;;25.15;;
56141;SDS011;42018;48.588;10.836;2022-12-20T09:40:54;46.55;;;26.40;;
56141;SDS011;42018;48.588;10.836;2022-12-20T09:43:41;42.60;;;24.60;;
56141;SDS011;42018;48.588;10.836;2022-12-20T09:46:27;47.08;;;27.77;;
56141;SDS011;42018;48.588;10.836;2022-12-20T09:49:13;46.38;;;28.27;;
56141;SDS011;42018;48.588;10.836;2022-12-20T10:01:03;40.85;;;24.35;;
56141;SDS011;42018;48.588;10.836;2022-12-20T10:04:02;40.65;;;25.23;;
56141;SDS011;42018;48.588;10.836;2022-12-20T10:07:13;40.60;;;24.52;;
56141;SDS011;42018;48.588;10.836;2022-12-20T10:25:41;42.67;;;24.48;;
56141;SDS011;42018;48.588;10.836;2022-12-20T10:28:28;41.80;;;25.23;;
56141;SDS011;42018;48.588;10.836;2022-12-20T10:31:16;43.00;;;25.38;;
56141;SDS011;42018;48.588;10.836;2022-12-20T10:34:02;41.47;;;26.23;;
56141;SDS011;42018;48.588;10.836;2022-12-20T10:36:47;41.78;;;26.48;;
56141;SDS011;42018;48.588;10.836;2022-12-20T10:39:41;39.20;;;24.27;;
56141;SDS011;42018;48.588;10.836;2022-12-20T10:45:26;35.42;;;22.50;;
56141;SDS011;42018;48.588;10.836;2022-12-20T10:48:24;41.50;;;23.35;;
56141;SDS011;42018;48.588;10.836;2022-12-20T10:51:16;41.00;;;24.63;;
56141;SDS011;42018;48.588;10.836;2022-12-20T10:54:09;40.38;;;25.98;;
56141;SDS011;42018;48.588;10.836;2022-12-20T11:00:03;48.47;;;28.05;;
56141;SDS011;42018;48.588;10.836;2022-12-20T11:03:04;40.75;;;25.70;;
56141;SDS011;42018;48.588;10.836;2022-12-20T11:05:59;43.58;;;26.77;;
56141;SDS011;42018;48.588;10.836;2022-12-20T11:08:47;45.20;;;26.98;;
56141;SDS011;42018;48.588;10.836;2022-12-20T11:11:32;46.92;;;28.25;;
56141;SDS011;42018;48.588;10.836;2022-12-20T11:14:18;50.83;;;30.08;;
56141;SDS011;42018;48.588;10.836;2022-12-20T11:17:05;52.25;;;30.67;;
56141;SDS011;42018;48.588;10.836;2022-12-20T11:23:30;45.05;;;27.52;;
56141;SDS011;42018;48.588;10.836;2022-12-20T11:26:40;49.55;;;29.52;;
56141;SDS011;42018;48.588;10.836;2022-12-20T11:30:01;44.03;;;27.63;;
56141;SDS011;42018;48.588;10.836;2022-12-20T11:36:15;38.30;;;24.50;;
56141;SDS011;42018;48.588;10.836;2022-12-20T11:39:13;47.00;;;27.98;;
56141;SDS011;42018;48.588;10.836;2022-12-20T11:42:20;42.60;;;29.85;;
56141;SDS011;42018;48.588;10.836;2022-12-20T11:45:29;40.95;;;27.05;;
56141;SDS011;42018;48.588;10.836;2022-12-20T11:57:17;43.63;;;28.88;;
56141;SDS011;42018;48.588;10.836;2022-12-20T12:00:10;40.13;;;25.35;;
56141;SDS011;42018;48.588;10.836;2022-12-20T12:02:58;40.88;;;25.63;;
56141;SDS011;42018;48.588;10.836;2022-12-20T12:06:06;38.70;;;24.42;;
56141;SDS011;42018;48.588;10.836;2022-12-20T12:17:48;39.30;;;25.08;;
56141;SDS011;42018;48.588;10.836;2022-12-20T12:24:06;39.40;;;26.83;;
56141;SDS011;42018;48.588;10.836;2022-12-20T12:26:55;38.50;;;26.55;;
56141;SDS011;42018;48.588;10.836;2022-12-20T12:29:43;39.90;;;25.52;;
56141;SDS011;42018;48.588;10.836;2022-12-20T12:41:43;38.33;;;25.13;;
56141;SDS011;42018;48.588;10.836;2022-12-20T12:44:46;35.38;;;24.23;;
56141;SDS011;42018;48.588;10.836;2022-12-20T12:47:40;37.28;;;24.88;;
56141;SDS011;42018;48.588;10.836;2022-12-20T12:50:36;37.15;;;21.70;;
56141;SDS011;42018;48.588;10.836;2022-12-20T12:53:34;35.47;;;23.30;;
56141;SDS011;42018;48.588;10.836;2022-12-20T13:07:50;39.90;;;25.63;;
56141;SDS011;42018;48.588;10.836;2022-12-20T13:13:22;37.53;;;24.50;;
56141;SDS011;42018;48.588;10.836;2022-12-20T13:16:09;39.13;;;26.00;;
56141;SDS011;42018;48.588;10.836;2022-12-20T13:19:01;38.70;;;25.35;;
56141;SDS011;42018;48.588;10.836;2022-12-20T13:25:00;41.83;;;27.85;;
56141;SDS011;42018;48.588;10.836;2022-12-20T13:27:49;43.05;;;29.00;;
56141;SDS011;42018;48.588;10.836;2022-12-20T13:30:35;41.30;;;27.92;;
56141;SDS011;42018;48.588;10.836;2022-12-20T13:36:30;38.90;;;25.02;;
56141;SDS011;42018;48.588;10.836;2022-12-20T13:42:29;41.92;;;25.42;;
56141;SDS011;42018;48.588;10.836;2022-12-20T13:45:18;44.60;;;29.40;;
56141;SDS011;42018;48.588;10.836;2022-12-20T13:48:03;42.33;;;29.25;;
56141;SDS011;42018;48.588;10.836;2022-12-20T13:50:52;39.03;;;27.40;;
56141;SDS011;42018;48.588;10.836;2022-12-20T13:53:39;41.25;;;27.85;;
56141;SDS011;42018;48.588;10.836;2022-12-20T13:56:37;49.78;;;32.70;;
56141;SDS011;42018;48.588;10.836;2022-12-20T13:59:30;43.17;;;28.50;;
56141;SDS011;42018;48.588;10.836;2022-12-20T14:02:21;39.80;;;27.10;;
56141;SDS011;42018;48.588;10.836;2022-12-20T14:05:23;38.13;;;25.15;;
56141;SDS011;42018;48.588;10.836;2022-12-20T14:08:18;38.05;;;25.60;;
56141;SDS011;42018;48.588;10.836;2022-12-20T14:11:09;38.85;;;25.35;;
56141;SDS011;42018;48.588;10.836;2022-12-20T14:16:46;42.88;;;26.75;;
56141;SDS011;42018;48.588;10.836;2022-12-20T14:19:31;36.65;;;24.92;;
56141;SDS011;42018;48.588;10.836;2022-12-20T14:22:16;40.10;;;27.10;;
56141;SDS011;42018;48.588;10.836;2022-12-20T14:25:02;40.70;;;26.75;;
56141;SDS011;42018;48.588;10.836;2022-12-20T14:27:50;43.13;;;28.38;;
56141;SDS011;42018;48.588;10.836;2022-12-20T14:30:40;43.00;;;29.05;;
56141;SDS011;42018;48.588;10.836;2022-12-20T14:33:37;40.67;;;27.65;;
56141;SDS011;42018;48.588;10.836;2022-12-20T14:36:25;42.05;;;28.10;;
56141;SDS011;42018;48.588;10.836;2022-12-20T14:42:15;50.22;;;30.42;;
56141;SDS011;42018;48.588;10.836;2022-12-20T14:47:56;49.35;;;31.30;;
56141;SDS011;42018;48.588;10.836;2022-12-20T14:50:51;45.42;;;27.20;;
56141;SDS011;42018;48.588;10.836;2022-12-20T14:53:37;42.95;;;30.20;;
56141;SDS011;42018;48.588;10.836;2022-12-20T14:56:24;46.92;;;29.08;;
56141;SDS011;42018;48.588;10.836;2022-12-20T14:59:12;45.22;;;28.60;;
56141;SDS011;42018;48.588;10.836;2022-12-20T15:02:04;53.70;;;32.85;;
56141;SDS011;42018;48.588;10.836;2022-12-20T15:05:34;46.75;;;30.70;;
56141;SDS011;42018;48.588;10.836;2022-12-20T15:08:24;51.00;;;35.67;;
56141;SDS011;42018;48.588;10.836;2022-12-20T15:11:15;47.47;;;30.63;;
56141;SDS011;42018;48.588;10.836;2022-12-20T15:14:11;47.03;;;29.50;;
56141;SDS011;42018;48.588;10.836;2022-12-20T15:17:08;43.53;;;28.63;;
56141;SDS011;42018;48.588;10.836;2022-12-20T15:19:55;38.65;;;25.65;;
56141;SDS011;42018;48.588;10.836;2022-12-20T15:22:40;43.05;;;28.17;;
56141;SDS011;42018;48.588;10.836;2022-12-20T15:25:26;50.97;;;38.53;;
56141;SDS011;42018;48.588;10.836;2022-12-20T15:28:20;48.17;;;31.88;;
56141;SDS011;42018;48.588;10.836;2022-12-20T15:31:10;54.53;;;32.85;;
56141;SDS011;42018;48.588;10.836;2022-12-20T15:34:24;56.45;;;36.70;;
56141;SDS011;42018;48.588;10.836;2022-12-20T15:37:13;53.90;;;33.80;;
56141;SDS011;42018;48.588;10.836;2022-12-20T15:40:00;50.28;;;32.00;;
56141;SDS011;42018;48.588;10.836;2022-12-20T15:42:45;50.92;;;34.42;;
56141;SDS011;42018;48.588;10.836;2022-12-20T15:45:31;41.92;;;28.73;;
56141;SDS011;42018;48.588;10.836;2022-12-20T15:48:17;44.92;;;28.30;;
56141;SDS011;42018;48.588;10.836;2022-12-20T15:51:11;47.67;;;30.70;;
56141;SDS011;42018;48.588;10.836;2022-12-20T15:54:01;40.13;;;25.70;;
56141;SDS011;42018;48.588;10.836;2022-12-20T15:56:49;42.40;;;26.98;;
56141;SDS011;42018;48.588;10.836;2022-12-20T15:59:34;43.28;;;28.35;;
56141;SDS011;42018;48.588;10.836;2022-12-20T16:02:22;45.58;;;26.60;;
56141;SDS011;42018;48.588;10.836;2022-12-20T16:05:10;46.70;;;28.65;;
56141;SDS011;42018;48.588;10.836;2022-12-20T16:07:57;42.88;;;28.85;;
56141;SDS011;42018;48.588;10.836;2022-12-20T16:10:43;37.75;;;24.92;;
56141;SDS011;42018;48.588;10.836;2022-12-20T16:13:30;42.00;;;26.02;;
56141;SDS011;42018;48.588;10.836;2022-12-20T16:16:16;42.85;;;27.90;;
56141;SDS011;42018;48.588;10.836;2022-12-20T16:19:03;43.15;;;26.23;;
56141;SDS011;42018;48.588;10.836;2022-12-20T16:21:49;44.40;;;30.27;;
56141;SDS011;42018;48.588;10.836;2022-12-20T16:24:36;43.17;;;27.27;;
56141;SDS011;42018;48.588;10.836;2022-12-20T16:27:21;36.80;;;24.92;;
56141;SDS011;42018;48.588;10.836;2022-12-20T16:30:06;40.40;;;26.80;;
56141;SDS011;42018;48.588;10.836;2022-12-20T16:32:53;43.05;;;31.67;;
56141;SDS011;42018;48.588;10.836;2022-12-20T16:35:38;43.10;;;26.73;;
56141;SDS011;42018;48.588;10.836;2022-12-20T16:38:23;39.67;;;24.88;;
56141;SDS011;42018;48.588;10.836;2022-12-20T16:41:31;44.50;;;28.95;;
56141;SDS011;42018;48.588;10.836;2022-12-20T16:44:15;47.90;;;29.70;;
56141;SDS011;42018;48.588;10.836;2022-12-20T16:47:01;52.75;;;32.03;;
56141;SDS011;42018;48.588;10.836;2022-12-20T16:49:46;54.67;;;32.85;;
56141;SDS011;42018;48.588;10.836;2022-12-20T16:52:32;60.15;;;42.42;;
56141;SDS011;42018;48.588;10.836;2022-12-20T16:55:25;56.92;;;34.75;;
56141;SDS011;42018;48.588;10.836;2022-12-20T16:58:11;78.90;;;46.50;;
56141;SDS011;42018;48.588;10.836;2022-12-20T17:00:57;66.88;;;42.28;;
56141;SDS011;42018;48.588;10.836;2022-12-20T17:03:43;62.13;;;37.92;;
56141;SDS011;42018;48.588;10.836;2022-12-20T17:06:30;57.75;;;34.88;;
56141;SDS011;42018;48.588;10.836;2022-12-20T17:09:17;55.05;;;34.70;;
56141;SDS011;42018;48.588;10.836;2022-12-20T17:12:07;58.47;;;37.25;;
56141;SDS011;42018;48.588;10.836;2022-12-20T17:14:59;59.58;;;34.70;;
56141;SDS011;42018;48.588;10.836;2022-12-20T17:17:44;75.32;;;43.47;;
56141;SDS011;42018;48.588;10.836;2022-12-20T17:20:30;71.43;;;39.50;;
56141;SDS011;42018;48.588;10.836;2022-12-20T17:23:15;67.45;;;39.92;;
56141;SDS011;42018;48.588;10.836;2022-12-20T17:26:01;63.55;;;38.15;;
56141;SDS011;42018;48.588;10.836;2022-12-20T17:28:46;61.08;;;36.40;;
56141;SDS011;42018;48.588;10.836;2022-12-20T17:31:33;68.28;;;40.72;;
56141;SDS011;42018;48.588;10.836;2022-12-20T17:34:27;62.45;;;39.58;;
56141;SDS011;42018;48.588;10.836;2022-12-20T17:37:14;61.38;;;39.90;;
56141;SDS011;42018;48.588;10.836;2022-12-20T17:40:02;59.83;;;40.20;;
56141;SDS011;42018;48.588;10.836;2022-12-20T17:42:48;46.65;;;31.00;;
56141;SDS011;42018;48.588;10.836;2022-12-20T17:45:34;47.53;;;30.73;;
56141;SDS011;42018;48.588;10.836;2022-12-20T17:48:20;50.38;;;31.33;;
56141;SDS011;42018;48.588;10.836;2022-12-20T17:51:11;52.80;;;34.50;;
56141;SDS011;42018;48.588;10.836;2022-12-20T17:54:01;45.40;;;30.08;;
56141;SDS011;42018;48.588;10.836;2022-12-20T17:56:46;47.28;;;30.35;;
56141;SDS011;42018;48.588;10.836;2022-12-20T17:59:33;50.95;;;30.83;;
56141;SDS011;42018;48.588;10.836;2022-12-20T18:02:19;50.97;;;34.10;;
56141;SDS011;42018;48.588;10.836;2022-12-20T18:05:09;49.20;;;31.77;;
56141;SDS011;42018;48.588;10.836;2022-12-20T18:07:55;53.13;;;34.38;;
56141;SDS011;42018;48.588;10.836;2022-12-20T18:10:41;48.88;;;31.70;;